Terminal Aerodrome Forecast
Issued by NWS Topeka, KS

Home | Current Version | Previous Version | Graphics & Text | Print | Product List | Glossary On
Versions: 1 2 3 4 5 6 7 8 9 10 11 12 13 14 15 16 17 18
000
FTUS43 KTOP 181512 AAB
TAFTOP
TAF AMD
KTOP 181512Z 1815/1912 34022G32KT P6SM SCT050 OVC070
     FM181800 32020G33KT P6SM SCT030 SCT150
     FM190000 31007KT P6SM SKC=

USA.gov is the U.S. government's official web portal to all federal, state and local government web resources and services.